Time;durP1;ratioP1;P1;durP2;ratioP2;P2;SDS_P1;SDS_P2;PMS_P1;PMS_P2;Temp;Humidity;BMP_temperature;BMP_pressure;BME280_temperature;BME280_humidity;BME280_pressure;Samples;Min_cycle;Max_cycle;Signal;HPM_P1;HPM_P2
2023/10/09 00:01:13;;;;;;;13.88;6.05;;;14.20;99.90;;;;;;6190652;22;20079;-71
2023/10/09 00:03:41;;;;;;;11.02;5.22;;;14.20;99.90;;;;;;5103177;28;20569;-71
2023/10/09 00:06:07;;;;;;;14.05;6.38;;;;;;;;;;5087418;28;20044;-71
2023/10/09 00:08:34;;;;;;;13.55;6.07;;;14.10;99.90;;;;;;5090481;28;20507;-71
2023/10/09 00:11:17;;;;;;;15.13;7.45;;;14.20;99.90;;;;;;5089994;28;20446;-71
2023/10/09 00:13:50;;;;;;;12.50;6.93;;;14.20;99.90;;;;;;5086817;28;20469;-71
2023/10/09 00:16:33;;;;;;;16.42;8.40;;;14.00;99.90;;;;;;5089227;28;20051;-71
2023/10/09 00:19:13;;;;;;;14.70;7.32;;;;;;;;;;5093861;28;20050;-71
2023/10/09 00:21:44;;;;;;;16.48;7.80;;;13.90;99.90;;;;;;5091609;28;20167;-71
2023/10/09 00:24:23;;;;;;;16.15;7.88;;;;;;;;;;5090944;28;20040;-71
2023/10/09 00:26:51;;;;;;;14.75;8.02;;;14.00;99.90;;;;;;5089559;28;20054;-71
2023/10/09 00:29:21;;;;;;;22.10;8.00;;;14.10;99.90;;;;;;5092090;28;20032;-70
2023/10/09 00:31:55;;;;;;;17.40;8.60;;;14.10;99.90;;;;;;5093408;28;20114;-71
2023/10/09 00:34:22;;;;;;;22.80;9.15;;;14.00;99.90;;;;;;5083029;28;20105;-71
2023/10/09 00:36:51;;;;;;;19.33;8.60;;;14.00;99.90;;;;;;5096488;28;20485;-71
2023/10/09 00:42:01;;;;;;;22.55;8.68;;;;;;;;;;5090938;28;20059;-71
2023/10/09 00:44:39;;;;;;;19.50;8.95;;;13.90;99.90;;;;;;5095840;28;20040;-71
2023/10/09 00:47:23;;;;;;;25.65;10.10;;;13.80;99.90;;;;;;5100257;28;20036;-71
2023/10/09 00:50:01;;;;;;;24.85;10.13;;;14.00;99.90;;;;;;5093505;28;20086;-71
2023/10/09 00:52:43;;;;;;;20.73;9.20;;;14.00;99.90;;;;;;5087493;28;20401;-71
2023/10/09 00:58:05;;;;;;;23.00;10.82;;;13.80;99.90;;;;;;5091573;28;20047;-71
2023/10/09 01:03:10;;;;;;;27.60;10.75;;;13.80;99.90;;;;;;5090677;28;20055;-71
2023/10/09 01:05:37;;;;;;;27.55;11.85;;;14.00;99.90;;;;;;5089683;28;20127;-71
2023/10/09 01:08:15;;;;;;;27.88;12.30;;;13.90;99.90;;;;;;5092571;28;20040;-71
2023/10/09 01:10:56;;;;;;;26.05;11.43;;;13.90;99.90;;;;;;5088984;28;20047;-71
2023/10/09 01:13:28;;;;;;;28.65;12.75;;;14.10;99.90;;;;;;5089414;28;20044;-71
2023/10/09 01:15:58;;;;;;;24.02;12.23;;;13.80;99.90;;;;;;5093511;28;20043;-71
2023/10/09 01:18:31;;;;;;;28.27;12.57;;;13.80;99.90;;;;;;5094053;28;20048;-71
2023/10/09 01:20:57;;;;;;;27.25;13.30;;;14.00;99.90;;;;;;5091105;28;20091;-71
2023/10/09 01:23:23;;;;;;;31.58;14.13;;;13.90;99.90;;;;;;5091195;28;20080;-71
2023/10/09 01:25:49;;;;;;;31.27;13.30;;;13.90;99.90;;;;;;5093401;28;20051;-71
2023/10/09 01:28:15;;;;;;;27.80;14.43;;;14.00;99.90;;;;;;5091928;28;20096;-71
2023/10/09 01:30:43;;;;;;;33.15;15.85;;;13.90;99.90;;;;;;5089505;28;20044;-71
2023/10/09 01:33:22;;;;;;;37.58;16.95;;;14.10;99.90;;;;;;5083577;28;20048;-71
2023/10/09 01:35:49;;;;;;;36.28;15.48;;;13.90;99.90;;;;;;5088351;28;20044;-71
2023/10/09 01:38:18;;;;;;;32.38;16.20;;;13.90;99.90;;;;;;5088813;28;20051;-71
2023/10/09 01:40:44;;;;;;;35.20;16.17;;;13.80;99.90;;;;;;5088627;28;20048;-71
2023/10/09 01:43:10;;;;;;;35.65;16.15;;;13.90;99.90;;;;;;5090204;28;20050;-71
2023/10/09 01:45:46;;;;;;;38.55;16.58;;;14.00;99.90;;;;;;5088802;28;20955;-71
2023/10/09 01:48:14;;;;;;;38.42;18.02;;;;;;;;;;5089988;28;20036;-71
2023/10/09 01:50:41;;;;;;;34.05;17.23;;;14.00;99.90;;;;;;5088445;28;20039;-71
2023/10/09 01:53:08;;;;;;;36.63;17.38;;;14.10;99.90;;;;;;5070968;28;20082;-71
2023/10/09 01:55:41;;;;;;;39.75;18.88;;;14.00;99.90;;;;;;5088082;28;20032;-71
2023/10/09 01:58:24;;;;;;;32.78;18.05;;;13.90;99.90;;;;;;5089644;28;20042;-71
2023/10/09 02:01:01;;;;;;;45.42;20.50;;;14.00;99.90;;;;;;5081450;28;20047;-71
2023/10/09 02:03:29;;;;;;;37.78;18.45;;;;;;;;;;5087346;28;20202;-71
2023/10/09 02:05:59;;;;;;;50.05;21.83;;;14.00;99.90;;;;;;5087891;28;20052;-71
2023/10/09 02:08:35;;;;;;;51.13;21.92;;;14.20;99.90;;;;;;5069826;28;20089;-71
2023/10/09 02:11:02;;;;;;;52.08;22.58;;;14.10;99.90;;;;;;5087815;28;20048;-71
2023/10/09 02:13:34;;;;;;;47.60;22.92;;;14.10;99.90;;;;;;5071443;28;20039;-71
2023/10/09 02:16:15;;;;;;;47.63;22.58;;;14.20;99.90;;;;;;5087618;28;20036;-72
2023/10/09 02:18:55;;;;;;;51.33;23.05;;;14.20;99.90;;;;;;5087611;28;20044;-71
2023/10/09 02:21:39;;;;;;;51.10;24.30;;;14.20;99.90;;;;;;5087799;28;20048;-71
2023/10/09 02:24:07;;;;;;;48.40;23.42;;;14.20;99.90;;;;;;5080506;28;20040;-72
2023/10/09 02:29:14;;;;;;;52.55;25.73;;;;;;;;;;5086194;28;20051;-71
2023/10/09 02:31:41;;;;;;;55.10;26.40;;;14.20;99.90;;;;;;5087390;28;20052;-72
2023/10/09 02:34:10;;;;;;;56.70;26.17;;;14.40;99.90;;;;;;5088490;28;20443;-71
2023/10/09 02:36:43;;;;;;;57.90;25.10;;;15.90;99.90;;;;;;5082962;28;20044;-71
2023/10/09 02:39:22;;;;;;;55.03;26.10;;;14.40;99.90;;;;;;5086644;28;20071;-71
2023/10/09 02:41:55;;;;;;;55.90;26.17;;;14.50;99.90;;;;;;5088545;28;20043;-72
2023/10/09 02:44:31;;;;;;;60.83;27.40;;;14.40;99.90;;;;;;5069873;28;20078;-71
2023/10/09 02:46:58;;;;;;;54.80;25.05;;;14.40;99.90;;;;;;5086368;28;20058;-71
2023/10/09 02:49:24;;;;;;;61.10;27.17;;;14.50;99.90;;;;;;5086787;28;20047;-71
2023/10/09 02:51:53;;;;;;;59.33;26.92;;;;;;;;;;5088475;28;20120;-72
2023/10/09 02:54:35;;;;;;;56.65;27.42;;;14.50;99.90;;;;;;5086939;28;20070;-71
2023/10/09 02:57:15;;;;;;;52.60;25.55;;;14.40;99.90;;;;;;5086232;28;20040;-71
2023/10/09 02:59:44;;;;;;;64.93;29.63;;;;;;;;;;5086285;28;20444;-71
2023/10/09 03:02:10;;;;;;;62.35;27.75;;;;;;;;;;5086885;28;20055;-71
2023/10/09 03:04:38;;;;;;;62.40;28.20;;;14.50;99.90;;;;;;5086204;28;20047;-72
2023/10/09 03:07:05;;;;;;;57.22;25.77;;;;;;;;;;5086476;28;20401;-71
2023/10/09 03:09:32;;;;;;;60.65;27.60;;;;;;;;;;5085723;28;20452;-71
2023/10/09 03:12:02;;;;;;;63.65;28.98;;;14.60;99.90;;;;;;5087307;28;20047;-71
2023/10/09 03:14:30;;;;;;;65.85;28.75;;;14.60;99.90;;;;;;5098197;28;20116;-71
2023/10/09 03:16:56;;;;;;;63.10;27.75;;;14.60;99.90;;;;;;5086375;28;20437;-71
2023/10/09 03:19:25;;;;;;;63.85;28.23;;;14.70;99.90;;;;;;5087946;28;20093;-71
2023/10/09 03:21:51;;;;;;;61.65;28.05;;;;;;;;;;5085871;28;20047;-71
2023/10/09 03:24:19;;;;;;;66.22;28.83;;;14.50;99.90;;;;;;5087410;28;20036;-72
2023/10/09 03:26:45;;;;;;;66.47;29.95;;;14.60;99.90;;;;;;5086252;28;20044;-71
2023/10/09 03:29:11;;;;;;;62.03;29.02;;;14.60;99.90;;;;;;5086363;28;20550;-71
2023/10/09 03:31:37;;;;;;;68.82;28.77;;;14.60;99.90;;;;;;5086015;28;20044;-72
2023/10/09 03:34:04;;;;;;;59.28;27.40;;;14.60;99.90;;;;;;5086943;28;20109;-71
2023/10/09 03:36:30;;;;;;;61.13;28.70;;;14.60;99.90;;;;;;5087555;28;20116;-71
2023/10/09 03:38:59;;;;;;;67.70;30.52;;;14.60;99.90;;;;;;5086807;28;20386;-71
2023/10/09 03:41:26;;;;;;;58.58;29.48;;;14.60;99.90;;;;;;5083579;28;20070;-71
2023/10/09 03:43:54;;;;;;;65.18;29.13;;;14.70;99.90;;;;;;5085667;28;20043;-71
2023/10/09 03:46:32;;;;;;;61.28;30.30;;;;;;;;;;5085867;28;20375;-71
2023/10/09 03:49:00;;;;;;;68.85;29.38;;;;;;;;;;5085915;28;20042;-72
2023/10/09 03:51:27;;;;;;;61.83;29.13;;;14.70;99.90;;;;;;5085009;28;20142;-71
2023/10/09 03:53:52;;;;;;;62.97;28.83;;;14.80;99.90;;;;;;5085798;28;20382;-71
2023/10/09 03:56:21;;;;;;;66.75;29.15;;;14.70;99.90;;;;;;5087444;28;20043;-71
2023/10/09 03:58:49;;;;;;;64.05;27.73;;;14.80;99.90;;;;;;5086556;28;20093;-71
2023/10/09 04:01:27;;;;;;;66.72;30.23;;;15.00;99.90;;;;;;5085154;28;20055;-71
2023/10/09 04:03:55;;;;;;;66.20;28.52;;;14.90;99.90;;;;;;5085352;28;20054;-71
2023/10/09 04:06:22;;;;;;;65.53;29.70;;;15.00;99.90;;;;;;5085361;28;20047;-71
2023/10/09 04:08:49;;;;;;;68.35;28.55;;;14.80;99.90;;;;;;5086655;28;20119;-71
2023/10/09 04:11:22;;;;;;;58.50;28.00;;;;;;;;;;5085323;28;20578;-71
2023/10/09 04:13:59;;;;;;;73.32;29.30;;;15.20;99.90;;;;;;5081022;28;20508;-71
2023/10/09 04:18:57;;;;;;;63.25;28.33;;;15.00;99.90;;;;;;5085189;28;20048;-71
2023/10/09 04:26:44;;;;;;;56.35;26.65;;;15.10;99.90;;;;;;5084138;28;20357;-71
2023/10/09 04:29:26;;;;;;;56.50;27.67;;;15.00;99.90;;;;;;5085572;28;20083;-71
2023/10/09 04:31:56;;;;;;;57.55;27.90;;;15.20;99.90;;;;;;5085617;28;20943;-71
2023/10/09 04:34:23;;;;;;;54.78;25.55;;;15.20;99.90;;;;;;5085416;28;20080;-71
2023/10/09 04:36:56;;;;;;;52.35;24.70;;;15.30;99.90;;;;;;5085099;28;20404;-71
2023/10/09 04:47:49;;;;;;;58.70;23.48;;;15.20;99.90;;;;;;5082308;28;20393;-71
2023/10/09 04:50:36;;;;;;;46.95;23.00;;;15.50;99.90;;;;;;5082867;28;20067;-71
2023/10/09 04:55:54;;;;;;;47.55;22.52;;;;;;;;;;5084661;28;20127;-71
2023/10/09 04:58:25;;;;;;;44.60;23.42;;;15.30;99.90;;;;;;5083671;28;20043;-71
2023/10/09 05:07:22;;;;;;;40.78;20.25;;;;;;;;;;5075784;28;20055;-71
2023/10/09 05:09:13;;;;;;;41.88;21.45;;;;;;;;;;5080491;28;20044;-71
2023/10/09 05:11:53;;;;;;;40.65;21.40;;;15.50;99.90;;;;;;5071646;28;20131;-71
2023/10/09 05:14:38;;;;;;;41.83;20.83;;;15.50;99.90;;;;;;5087807;28;20040;-71
2023/10/09 05:17:09;;;;;;;40.65;18.90;;;15.50;99.90;;;;;;5088724;28;20444;-71
2023/10/09 05:19:54;;;;;;;39.35;19.25;;;15.50;99.90;;;;;;5088127;28;20036;-71
2023/10/09 05:22:29;;;;;;;37.15;19.08;;;15.60;99.90;;;;;;5085769;28;20051;-71
2023/10/09 05:24:58;;;;;;;37.95;17.55;;;15.60;99.90;;;;;;5088476;28;20097;-71
2023/10/09 05:27:45;;;;;;;34.13;17.15;;;15.50;99.90;;;;;;5087739;28;20085;-71
2023/10/09 05:30:24;;;;;;;37.25;16.98;;;15.50;99.90;;;;;;5087569;28;20123;-71
2023/10/09 05:32:54;;;;;;;31.20;15.65;;;15.50;99.90;;;;;;5089001;28;20486;-71
2023/10/09 05:35:29;;;;;;;34.25;15.38;;;15.60;99.90;;;;;;5087171;28;20051;-71
2023/10/09 05:38:01;;;;;;;;;;;15.40;99.90;;;;;;5088021;28;20092;-71
2023/10/09 05:40:31;;;;;;;28.20;13.57;;;;;;;;;;5087398;28;19920;-71
2023/10/09 05:43:02;;;;;;;27.45;13.38;;;;;;;;;;5087457;28;20154;-71
2023/10/09 05:51:09;;;;;;;26.92;12.15;;;;;;;;;;5087291;28;20043;-71
2023/10/09 06:01:54;;;;;;;22.38;9.63;;;;;;;;;;5087289;28;20047;-71
2023/10/09 06:07:13;;;;;;;21.05;9.13;;;;;;;;;;5084205;28;20051;-71
2023/10/09 06:09:57;;;;;;;19.02;8.50;;;;;;;;;;5089066;28;20040;-71
2023/10/09 06:12:33;;;;;;;15.17;9.47;;;;;;;;;;5085827;28;20131;-71
2023/10/09 06:15:18;;;;;;;26.83;10.13;;;;;;;;;;5087486;28;20248;-71
2023/10/09 06:17:50;;;;;;;22.23;9.52;;;15.80;99.90;;;;;;5084286;28;20052;-71
2023/10/09 06:23:15;;;;;;;22.35;8.55;;;15.80;99.90;;;;;;5088739;28;20044;-69
2023/10/09 06:25:51;;;;;;;20.75;8.60;;;15.90;99.90;;;;;;5089121;28;20040;-69
2023/10/09 06:28:18;;;;;;;20.92;8.38;;;15.60;99.90;;;;;;5090883;28;20043;-69
2023/10/09 06:30:47;;;;;;;20.73;9.02;;;15.80;99.90;;;;;;5085243;28;20043;-69
2023/10/09 06:33:19;;;;;;;20.55;9.68;;;15.90;99.90;;;;;;5087914;28;20188;-69
2023/10/09 06:35:53;;;;;;;20.42;8.27;;;15.80;99.90;;;;;;5087349;28;20059;-70
2023/10/09 06:38:22;;;;;;;20.35;9.30;;;15.90;99.90;;;;;;5084195;28;20047;-69
2023/10/09 06:45:57;;;;;;;19.58;8.73;;;16.00;99.90;;;;;;5086966;28;20729;-68
2023/10/09 06:51:34;;;;;;;22.90;10.30;;;15.90;99.90;;;;;;5085401;28;20104;-70
2023/10/09 06:54:06;;;;;;;20.42;9.05;;;;;;;;;;5088458;28;20764;-70
2023/10/09 06:58:57;;;;;;;19.00;8.65;;;;;;;;;;5092823;28;20134;-69
2023/10/09 07:03:53;;;;;;;22.73;9.38;;;;;;;;;;5084742;28;20051;-69
2023/10/09 07:06:48;;;;;;;16.30;8.75;;;16.00;99.90;;;;;;5085984;28;20864;-69
2023/10/09 07:24:56;;;;;;;20.90;8.40;;;16.10;99.90;;;;;;5086497;28;20074;-71
2023/10/09 07:27:45;;;;;;;23.35;8.88;;;16.30;99.90;;;;;;5085507;28;20040;-70
2023/10/09 07:38:10;;;;;;;19.50;8.82;;;16.30;99.90;;;;;;5089362;28;20051;-70
2023/10/09 07:43:26;;;;;;;18.23;9.00;;;;;;;;;;5085583;28;20201;-70
2023/10/09 07:48:29;;;;;;;21.50;8.38;;;16.00;99.90;;;;;;5087684;28;20065;-70
2023/10/09 07:50:58;;;;;;;22.25;8.73;;;;;;;;;;5087069;28;20047;-70
2023/10/09 07:53:26;;;;;;;17.58;9.20;;;16.10;99.90;;;;;;5089007;28;20176;-70
2023/10/09 07:56:06;;;;;;;18.67;9.70;;;16.30;99.90;;;;;;5088026;28;20075;-70
2023/10/09 07:58:33;;;;;;;22.20;9.10;;;;;;;;;;5088509;28;20046;-70
2023/10/09 08:01:08;;;;;;;23.67;9.50;;;16.40;99.90;;;;;;5089093;28;20043;-70
2023/10/09 08:03:34;;;;;;;;;;;16.30;99.90;;;;;;5089355;28;20043;-70
2023/10/09 08:06:37;;;;;;;17.08;7.80;;;16.30;99.90;;;;;;5087142;28;19920;-70
2023/10/09 08:16:46;;;;;;;22.08;8.63;;;;;;;;;;5086194;28;20100;-70
2023/10/09 08:24:42;;;;;;;21.27;7.80;;;;;;;;;;5088994;28;20738;-70
2023/10/09 08:30:12;;;;;;;28.42;9.45;;;;;;;;;;5081163;28;20040;-70
2023/10/09 08:32:38;;;;;;;31.95;10.27;;;16.60;99.90;;;;;;5083819;28;20379;-70
2023/10/09 08:35:18;;;;;;;19.95;7.40;;;16.50;99.90;;;;;;5089578;28;20465;-70
2023/10/09 08:37:48;;;;;;;27.88;9.65;;;;;;;;;;5089206;28;20044;-70
2023/10/09 08:40:13;;;;;;;16.63;8.18;;;16.60;99.90;;;;;;5098771;28;20121;-70
2023/10/09 08:42:39;;;;;;;19.73;8.90;;;;;;;;;;5092231;28;20036;-68
2023/10/09 08:45:07;;;;;;;30.08;8.63;;;16.60;99.90;;;;;;5086011;28;20118;-68
2023/10/09 08:47:35;;;;;;;18.88;8.05;;;16.60;99.90;;;;;;5090739;28;20508;-69
2023/10/09 08:50:01;;;;;;;25.33;8.10;;;;;;;;;;5089028;28;20047;-70
2023/10/09 08:52:27;;;;;;;18.13;8.68;;;;;;;;;;5087097;28;20051;-68
2023/10/09 08:54:53;;;;;;;22.63;8.35;;;;;;;;;;5091636;28;20421;-69
2023/10/09 08:57:19;;;;;;;23.55;7.65;;;16.60;99.90;;;;;;5099330;28;20150;-68
2023/10/09 08:59:45;;;;;;;23.42;7.68;;;;;;;;;;5091404;28;20044;-68
2023/10/09 09:02:11;;;;;;;25.30;8.57;;;;;;;;;;5096139;28;20114;-69
2023/10/09 09:04:45;;;;;;;22.10;7.35;;;16.60;99.90;;;;;;5088905;28;20042;-69
2023/10/09 09:07:31;;;;;;;19.90;8.32;;;16.60;99.90;;;;;;5094059;28;20043;-70
2023/10/09 09:10:21;;;;;;;25.20;8.40;;;16.60;99.90;;;;;;5089291;28;20115;-71
2023/10/09 09:12:53;;;;;;;23.13;8.55;;;16.50;99.90;;;;;;5088065;28;20095;-71
2023/10/09 09:15:19;;;;;;;22.65;8.18;;;;;;;;;;5083014;28;20557;-69
2023/10/09 09:17:45;;;;;;;25.77;8.05;;;16.60;99.90;;;;;;5089526;28;20056;-68
2023/10/09 09:20:23;;;;;;;24.08;7.82;;;16.60;99.90;;;;;;5087344;28;20118;-68
2023/10/09 09:22:56;;;;;;;25.70;7.20;;;16.70;99.90;;;;;;5088857;28;20155;-68
2023/10/09 09:25:24;;;;;;;28.48;8.07;;;16.60;99.90;;;;;;5086848;28;20138;-68
2023/10/09 09:27:55;;;;;;;19.48;8.02;;;16.50;99.90;;;;;;5088716;28;20036;-68
2023/10/09 09:30:35;;;;;;;25.48;8.57;;;16.70;99.90;;;;;;5089867;28;20560;-69
2023/10/09 09:33:20;;;;;;;23.73;8.93;;;16.60;99.90;;;;;;5087240;28;20073;-69
2023/10/09 09:36:02;;;;;;;22.55;8.13;;;17.00;99.90;;;;;;5086711;28;20052;-69
2023/10/09 09:38:29;;;;;;;22.27;8.50;;;16.80;99.90;;;;;;5088699;28;20047;-70
2023/10/09 09:40:56;;;;;;;20.13;8.00;;;16.80;99.90;;;;;;5090578;28;20059;-70
2023/10/09 09:43:22;;;;;;;27.50;8.70;;;16.60;99.90;;;;;;5088305;28;20040;-69
2023/10/09 09:45:52;;;;;;;21.25;8.88;;;;;;;;;;5091203;28;20810;-70
2023/10/09 09:48:19;;;;;;;21.27;8.07;;;;;;;;;;5093953;28;20035;-70
2023/10/09 09:50:46;;;;;;;21.63;8.73;;;;;;;;;;5095786;28;20058;-69
2023/10/09 09:53:18;;;;;;;23.48;8.27;;;16.80;99.90;;;;;;5089667;28;20058;-70
2023/10/09 09:55:55;;;;;;;24.30;10.27;;;17.00;99.90;;;;;;5097747;28;20052;-70
2023/10/09 09:58:23;;;;;;;25.60;7.82;;;;;;;;;;5098361;28;20048;-69
2023/10/09 10:01:17;;;;;;;27.38;9.43;;;16.80;99.90;;;;;;5092885;28;20036;-69
2023/10/09 10:03:49;;;;;;;21.58;8.77;;;17.10;99.90;;;;;;5090573;28;20079;-69
2023/10/09 10:06:19;;;;;;;24.48;9.63;;;17.20;99.90;;;;;;5087832;28;20394;-69
2023/10/09 10:08:50;;;;;;;21.33;8.07;;;;;;;;;;5087682;28;20044;-69
2023/10/09 10:11:44;;;;;;;28.92;8.05;;;17.00;99.90;;;;;;5086172;28;20449;-69
2023/10/09 10:14:11;;;;;;;20.05;7.68;;;17.10;99.90;;;;;;5094173;28;20047;-69
2023/10/09 10:17:17;;;;;;;19.65;7.78;;;17.40;99.90;;;;;;5094346;28;20043;-69
2023/10/09 10:19:59;;;;;;;20.95;7.60;;;17.10;99.90;;;;;;5087187;28;20051;-69
2023/10/09 10:22:29;;;;;;;20.02;7.57;;;17.50;99.90;;;;;;5076983;28;20493;-70
2023/10/09 10:24:57;;;;;;;19.42;7.45;;;;;;;;;;5087149;28;20043;-70
2023/10/09 10:27:26;;;;;;;16.67;6.82;;;17.00;99.90;;;;;;5086827;28;20721;-69
2023/10/09 10:30:13;;;;;;;23.58;8.25;;;17.30;99.90;;;;;;5086969;28;20047;-69
2023/10/09 10:32:57;;;;;;;20.60;7.70;;;17.10;99.90;;;;;;5087631;28;20082;-69
2023/10/09 10:35:32;;;;;;;20.45;7.47;;;;;;;;;;5082996;28;20040;-69
2023/10/09 10:40:46;;;;;;;18.65;7.68;;;17.30;99.90;;;;;;5085160;28;20134;-70
2023/10/09 10:46:23;;;;;;;19.48;7.97;;;17.20;99.90;;;;;;5075135;28;20645;-69
2023/10/09 10:48:58;;;;;;;25.95;7.90;;;17.30;99.90;;;;;;5090982;28;20047;-69
2023/10/09 10:51:39;;;;;;;20.77;8.80;;;17.30;99.90;;;;;;5088315;28;20048;-70
2023/10/09 10:56:51;;;;;;;14.80;7.25;;;17.40;99.90;;;;;;5084248;28;20807;-69
2023/10/09 10:59:23;;;;;;;20.02;7.53;;;17.40;99.90;;;;;;5090272;28;20113;-69
2023/10/09 11:02:13;;;;;;;19.85;7.38;;;;;;;;;;5085316;28;20052;-69
2023/10/09 11:04:43;;;;;;;23.65;8.10;;;17.50;99.90;;;;;;5085957;28;20387;-69
2023/10/09 11:07:09;;;;;;;19.02;7.15;;;17.50;99.90;;;;;;5085815;28;20036;-69
2023/10/09 11:10:08;;;;;;;22.88;7.93;;;17.70;99.90;;;;;;5085520;28;20560;-69
2023/10/09 11:12:44;;;;;;;17.55;6.90;;;17.70;99.90;;;;;;5084438;28;20104;-69
2023/10/09 11:18:05;;;;;;;18.38;6.65;;;18.00;99.90;;;;;;5086205;28;20144;-70
2023/10/09 11:20:33;;;;;;;18.05;6.70;;;18.10;99.90;;;;;;5086473;28;20814;-70
2023/10/09 11:25:52;;;;;;;17.85;6.18;;;18.20;99.90;;;;;;5085109;28;20093;-69
2023/10/09 11:28:29;;;;;;;16.02;5.70;;;18.10;99.90;;;;;;5082327;28;20173;-70
2023/10/09 11:31:16;;;;;;;16.83;5.38;;;18.30;99.90;;;;;;5084542;28;20051;-69
2023/10/09 11:33:51;;;;;;;15.70;5.88;;;18.10;99.90;;;;;;5085275;28;20043;-70
2023/10/09 11:36:31;;;;;;;13.93;5.25;;;17.90;99.90;;;;;;5086182;28;20089;-69
2023/10/09 11:39:13;;;;;;;11.18;5.20;;;18.30;99.90;;;;;;5084037;28;20043;-70
2023/10/09 11:41:44;;;;;;;18.17;6.10;;;18.10;99.90;;;;;;5083996;28;20127;-68
2023/10/09 11:44:18;;;;;;;17.23;5.25;;;18.00;99.90;;;;;;5084845;28;20523;-69
2023/10/09 11:52:35;;;;;;;18.52;6.07;;;;;;;;;;5088170;28;20136;-69
2023/10/09 11:55:02;;;;;;;13.82;5.50;;;18.60;99.90;;;;;;5085540;28;20474;-69
2023/10/09 11:57:33;;;;;;;12.85;4.75;;;18.10;99.90;;;;;;5066816;28;20075;-69
2023/10/09 12:00:00;;;;;;;13.57;5.13;;;;;;;;;;5084289;28;20044;-68
2023/10/09 12:02:26;;;;;;;12.63;4.78;;;17.90;99.90;;;;;;5084468;28;20055;-71
2023/10/09 12:04:51;;;;;;;10.77;3.60;;;17.90;99.90;;;;;;5084966;28;20032;-69
2023/10/09 12:07:20;;;;;;;12.18;4.28;;;;;;;;;;5084785;28;20044;-70
2023/10/09 12:09:47;;;;;;;10.20;3.92;;;17.90;99.90;;;;;;5085252;28;20052;-70
2023/10/09 12:12:13;;;;;;;19.20;4.72;;;;;;;;;;5084770;28;20122;-70
2023/10/09 12:14:39;;;;;;;11.95;4.28;;;;;;;;;;5087424;28;20059;-70
2023/10/09 12:17:06;;;;;;;15.85;4.05;;;17.80;99.90;;;;;;5087702;28;20394;-70
2023/10/09 12:19:36;;;;;;;12.15;4.25;;;17.70;99.90;;;;;;5089535;28;20062;-70
2023/10/09 12:22:03;;;;;;;12.57;4.63;;;;;;;;;;5088654;28;20040;-70
2023/10/09 12:24:30;;;;;;;14.95;4.68;;;18.00;99.90;;;;;;5087585;28;20487;-70
2023/10/09 12:26:56;;;;;;;14.00;3.63;;;18.00;99.90;;;;;;5087254;28;20119;-70
2023/10/09 12:29:23;;;;;;;10.77;3.33;;;;;;;;;;5070328;28;20048;-69
2023/10/09 12:31:57;;;;;;;14.35;4.30;;;;;;;;;;5087181;28;20044;-69
2023/10/09 12:34:26;;;;;;;13.02;4.63;;;18.10;99.90;;;;;;5090503;28;20056;-69
2023/10/09 12:36:52;;;;;;;13.77;3.45;;;18.20;99.90;;;;;;5090120;28;20040;-70
2023/10/09 12:39:18;;;;;;;12.82;4.03;;;;;;;;;;5087192;28;20480;-69
2023/10/09 12:41:45;;;;;;;13.65;4.20;;;18.40;99.90;;;;;;5087799;28;20054;-69
2023/10/09 12:44:14;;;;;;;9.77;2.97;;;18.40;99.90;;;;;;5088725;28;20036;-69
2023/10/09 12:46:41;;;;;;;11.07;3.33;;;18.30;99.90;;;;;;5090342;28;20725;-70
2023/10/09 12:49:07;;;;;;;9.63;3.40;;;18.30;99.90;;;;;;5086518;28;20047;-69
2023/10/09 12:51:33;;;;;;;9.10;3.72;;;;;;;;;;5087317;28;20067;-69
2023/10/09 12:54:01;;;;;;;7.90;3.58;;;;;;;;;;5086706;28;20607;-70
2023/10/09 12:56:32;;;;;;;9.98;4.22;;;18.30;99.90;;;;;;5087287;28;20119;-69
2023/10/09 12:59:01;;;;;;;10.38;3.42;;;18.30;99.90;;;;;;5090526;28;20075;-69
2023/10/09 13:01:31;;;;;;;11.38;3.30;;;18.30;99.90;;;;;;5088252;28;20052;-70
2023/10/09 13:04:01;;;;;;;11.65;3.53;;;18.30;99.90;;;;;;5085405;28;20047;-70
2023/10/09 13:06:27;;;;;;;21.23;4.28;;;18.30;99.90;;;;;;5086281;28;20044;-69
2023/10/09 13:08:56;;;;;;;9.55;3.50;;;18.30;99.90;;;;;;5087042;28;20071;-69
2023/10/09 13:11:21;;;;;;;13.35;3.85;;;18.20;99.90;;;;;;5086857;28;20125;-69
2023/10/09 13:13:50;;;;;;;9.07;3.10;;;18.10;99.90;;;;;;5086862;28;20067;-69
2023/10/09 13:16:25;;;;;;;18.38;4.13;;;18.20;99.90;;;;;;5086779;28;20153;-69
2023/10/09 13:18:56;;;;;;;13.88;2.85;;;18.40;99.90;;;;;;5066576;28;20504;-69
2023/10/09 13:21:26;;;;;;;7.25;3.38;;;18.20;99.90;;;;;;5086505;28;20048;-69
2023/10/09 13:23:54;;;;;;;11.13;3.00;;;18.20;99.90;;;;;;5071029;28;20044;-70
2023/10/09 13:26:32;;;;;;;15.63;3.83;;;18.30;99.90;;;;;;5086885;28;20054;-70
2023/10/09 13:28:59;;;;;;;16.27;3.95;;;18.10;99.90;;;;;;5086524;28;20044;-70
2023/10/09 13:31:26;;;;;;;10.57;3.35;;;18.10;99.90;;;;;;5088228;28;20040;-70
2023/10/09 13:33:55;;;;;;;11.20;2.92;;;18.20;99.90;;;;;;5089062;28;20046;-70
2023/10/09 13:36:27;;;;;;;11.13;3.45;;;18.20;99.90;;;;;;5087611;28;20048;-70
2023/10/09 13:39:19;;;;;;;13.75;3.13;;;18.00;99.90;;;;;;5094269;28;20036;-70
2023/10/09 13:41:46;;;;;;;9.60;3.15;;;18.10;99.90;;;;;;5086740;28;20051;-70
2023/10/09 13:44:12;;;;;;;11.07;2.97;;;;;;;;;;5085251;28;20044;-70
2023/10/09 13:46:41;;;;;;;11.30;2.80;;;;;;;;;;5085789;28;20508;-69
2023/10/09 13:49:13;;;;;;;6.20;2.47;;;18.00;99.90;;;;;;5083616;28;20048;-70
2023/10/09 13:51:49;;;;;;;10.20;2.85;;;16.30;99.90;;;;;;5084546;28;20093;-70
2023/10/09 13:54:20;;;;;;;11.05;3.00;;;18.10;99.90;;;;;;5069969;28;20054;-70
2023/10/09 13:56:52;;;;;;;8.35;2.72;;;18.10;99.90;;;;;;5091739;28;20828;-69
2023/10/09 13:59:20;;;;;;;11.23;3.00;;;18.00;99.90;;;;;;5087750;28;20085;-69
2023/10/09 14:01:47;;;;;;;8.50;3.20;;;18.10;99.90;;;;;;5092762;28;20087;-69
2023/10/09 14:04:18;;;;;;;12.77;2.90;;;17.90;99.90;;;;;;5071414;28;20027;-70
2023/10/09 14:06:44;;;;;;;8.85;2.67;;;;;;;;;;5086430;28;20042;-70
2023/10/09 14:09:11;;;;;;;11.30;2.92;;;;;;;;;;5085999;28;20764;-70
2023/10/09 14:11:44;;;;;;;6.70;2.53;;;;;;;;;;5085666;28;20055;-70
2023/10/09 14:14:11;;;;;;;10.75;3.10;;;;;;;;;;5086665;28;20062;-70
2023/10/09 14:16:42;;;;;;;6.95;2.50;;;;;;;;;;5086064;28;20132;-70
2023/10/09 14:19:13;;;;;;;8.27;2.55;;;18.20;99.90;;;;;;5086261;28;20044;-70
2023/10/09 14:21:40;;;;;;;10.15;3.03;;;17.90;99.90;;;;;;5086847;28;20058;-70
2023/10/09 14:24:15;;;;;;;9.65;2.83;;;;;;;;;;5087516;28;20663;-70
2023/10/09 14:26:41;;;;;;;6.68;2.83;;;;;;;;;;5090514;28;20044;-70
2023/10/09 14:29:07;;;;;;;9.35;3.42;;;;;;;;;;5087699;28;20059;-70
2023/10/09 14:31:38;;;;;;;10.43;3.10;;;17.80;99.90;;;;;;5089607;28;20036;-70
2023/10/09 14:34:05;;;;;;;11.10;3.28;;;17.80;99.90;;;;;;5086894;28;20039;-70
2023/10/09 14:36:33;;;;;;;12.30;3.63;;;18.00;99.90;;;;;;5083435;28;20078;-70
2023/10/09 14:39:04;;;;;;;9.20;3.17;;;17.60;99.90;;;;;;5086656;28;20065;-70
2023/10/09 14:41:32;;;;;;;15.05;3.72;;;17.70;99.90;;;;;;5086021;28;20699;-70
2023/10/09 14:43:59;;;;;;;12.45;3.95;;;17.70;99.90;;;;;;5085096;28;20044;-70
2023/10/09 14:46:28;;;;;;;10.00;3.05;;;17.60;99.90;;;;;;5090600;28;20043;-70
2023/10/09 14:48:54;;;;;;;10.85;3.30;;;;;;;;;;5086677;28;20048;-70
2023/10/09 14:51:26;;;;;;;14.55;3.28;;;17.70;99.90;;;;;;5085660;28;20397;-70
2023/10/09 14:54:02;;;;;;;14.05;2.88;;;17.80;99.90;;;;;;5085174;28;20505;-69
2023/10/09 14:56:28;;;;;;;12.13;3.38;;;17.50;99.90;;;;;;5091352;28;20043;-69
2023/10/09 14:58:58;;;;;;;12.45;4.47;;;17.60;99.90;;;;;;5088570;28;20089;-70
2023/10/09 15:01:31;;;;;;;9.35;2.53;;;17.50;99.90;;;;;;5086104;28;20502;-70
2023/10/09 15:04:00;;;;;;;7.60;1.90;;;17.50;99.90;;;;;;5080861;28;20105;-69
2023/10/09 15:06:27;;;;;;;9.98;1.83;;;17.50;99.90;;;;;;5088812;28;20044;-70
2023/10/09 15:08:55;;;;;;;6.18;2.10;;;17.50;99.90;;;;;;5088359;28;20086;-70
2023/10/09 15:11:28;;;;;;;11.45;1.90;;;17.50;99.90;;;;;;5071416;28;20047;-70
2023/10/09 15:13:55;;;;;;;7.80;2.50;;;;;;;;;;5094820;28;20044;-70
2023/10/09 15:16:21;;;;;;;9.55;2.60;;;17.40;99.90;;;;;;5089439;28;20062;-70
2023/10/09 15:18:52;;;;;;;9.02;2.20;;;17.60;99.90;;;;;;5088746;28;20040;-70
2023/10/09 15:21:22;;;;;;;7.50;2.22;;;17.40;99.90;;;;;;5085145;28;20040;-70
2023/10/09 15:23:55;;;;;;;8.55;3.03;;;17.50;99.90;;;;;;5092174;28;20047;-70
2023/10/09 15:26:24;;;;;;;7.10;2.20;;;17.30;99.90;;;;;;5089814;28;20047;-70
2023/10/09 15:28:50;;;;;;;7.70;2.55;;;17.40;99.90;;;;;;5087578;28;20047;-69
2023/10/09 15:31:16;;;;;;;7.97;2.05;;;17.40;99.90;;;;;;5090962;28;20172;-70
2023/10/09 15:33:42;;;;;;;6.97;1.80;;;17.40;99.90;;;;;;5094289;28;20504;-70